sensor_id;sensor_type;location;lat;lon;timestamp;pressure;altitude;pressure_sealevel;temperature;humidity
49030;BME280;43337;52.070;4.508;2023-03-17T00:00:41;100864.03;;;8.53;95.19
49030;BME280;43337;52.070;4.508;2023-03-17T00:03:15;100867.47;;;8.55;95.80
49030;BME280;43337;52.070;4.508;2023-03-17T00:05:43;100845.69;;;8.53;96.90
49030;BME280;43337;52.070;4.508;2023-03-17T00:08:28;100843.19;;;8.50;97.83
49030;BME280;43337;52.070;4.508;2023-03-17T00:10:55;100831.06;;;8.46;96.90
49030;BME280;43337;52.070;4.508;2023-03-17T00:13:21;100825.94;;;8.43;97.16
49030;BME280;43337;52.070;4.508;2023-03-17T00:15:52;100839.03;;;8.43;97.43
49030;BME280;43337;52.070;4.508;2023-03-17T00:18:19;100835.66;;;8.39;98.58
49030;BME280;43337;52.070;4.508;2023-03-17T00:20:45;100845.38;;;8.36;98.40
49030;BME280;43337;52.070;4.508;2023-03-17T00:23:16;100815.25;;;8.21;99.48
49030;BME280;43337;52.070;4.508;2023-03-17T00:25:42;100832.50;;;8.28;99.97
49030;BME280;43337;52.070;4.508;2023-03-17T00:28:24;100829.19;;;8.23;100.00
49030;BME280;43337;52.070;4.508;2023-03-17T00:30:53;100831.22;;;8.13;99.96
49030;BME280;43337;52.070;4.508;2023-03-17T00:33:26;100835.53;;;8.16;100.00
49030;BME280;43337;52.070;4.508;2023-03-17T00:35:53;100842.63;;;8.12;100.00
49030;BME280;43337;52.070;4.508;2023-03-17T00:38:20;100843.75;;;8.05;100.00
49030;BME280;43337;52.070;4.508;2023-03-17T00:40:46;100839.53;;;7.99;100.00
49030;BME280;43337;52.070;4.508;2023-03-17T00:43:12;100846.50;;;8.00;100.00
49030;BME280;43337;52.070;4.508;2023-03-17T00:45:39;100837.88;;;7.97;100.00
49030;BME280;43337;52.070;4.508;2023-03-17T00:48:15;100821.31;;;7.96;100.00
49030;BME280;43337;52.070;4.508;2023-03-17T00:50:41;100807.38;;;7.94;100.00
49030;BME280;43337;52.070;4.508;2023-03-17T00:53:12;100792.03;;;7.82;100.00
49030;BME280;43337;52.070;4.508;2023-03-17T00:55:39;100824.94;;;7.92;100.00
49030;BME280;43337;52.070;4.508;2023-03-17T00:58:12;100817.31;;;7.85;100.00
49030;BME280;43337;52.070;4.508;2023-03-17T01:00:38;100818.09;;;7.87;100.00
49030;BME280;43337;52.070;4.508;2023-03-17T01:03:04;100823.44;;;7.83;100.00
49030;BME280;43337;52.070;4.508;2023-03-17T01:05:29;100829.50;;;7.86;100.00
49030;BME280;43337;52.070;4.508;2023-03-17T01:07:55;100820.88;;;7.82;100.00
49030;BME280;43337;52.070;4.508;2023-03-17T01:10:24;100824.34;;;7.82;100.00
49030;BME280;43337;52.070;4.508;2023-03-17T01:12:51;100825.19;;;7.83;100.00
49030;BME280;43337;52.070;4.508;2023-03-17T01:15:20;100829.59;;;7.82;100.00
49030;BME280;43337;52.070;4.508;2023-03-17T01:17:47;100818.34;;;7.79;100.00
49030;BME280;43337;52.070;4.508;2023-03-17T01:20:18;100814.78;;;7.81;100.00
49030;BME280;43337;52.070;4.508;2023-03-17T01:22:44;100810.63;;;7.74;100.00
49030;BME280;43337;52.070;4.508;2023-03-17T01:25:10;100813.00;;;7.82;100.00
49030;BME280;43337;52.070;4.508;2023-03-17T01:27:36;100782.81;;;7.70;100.00
49030;BME280;43337;52.070;4.508;2023-03-17T01:30:05;100805.16;;;7.82;100.00
49030;BME280;43337;52.070;4.508;2023-03-17T01:32:34;100790.28;;;7.82;100.00
49030;BME280;43337;52.070;4.508;2023-03-17T01:34:59;100791.22;;;7.80;100.00
49030;BME280;43337;52.070;4.508;2023-03-17T01:37:25;100793.66;;;7.86;100.00
49030;BME280;43337;52.070;4.508;2023-03-17T01:39:52;100790.19;;;7.86;100.00
49030;BME280;43337;52.070;4.508;2023-03-17T01:42:18;100787.41;;;7.90;100.00
49030;BME280;43337;52.070;4.508;2023-03-17T01:44:57;100785.59;;;7.92;100.00
49030;BME280;43337;52.070;4.508;2023-03-17T01:47:25;100785.53;;;7.94;100.00
49030;BME280;43337;52.070;4.508;2023-03-17T01:49:51;100785.53;;;7.94;100.00
49030;BME280;43337;52.070;4.508;2023-03-17T01:52:19;100779.53;;;7.90;100.00
49030;BME280;43337;52.070;4.508;2023-03-17T01:54:53;100784.53;;;7.98;100.00
49030;BME280;43337;52.070;4.508;2023-03-17T01:59:57;100775.81;;;7.97;100.00
49030;BME280;43337;52.070;4.508;2023-03-17T02:02:29;100769.63;;;8.00;100.00
49030;BME280;43337;52.070;4.508;2023-03-17T02:04:55;100767.88;;;8.00;100.00
49030;BME280;43337;52.070;4.508;2023-03-17T02:07:23;100775.56;;;8.05;100.00
49030;BME280;43337;52.070;4.508;2023-03-17T02:09:51;100776.50;;;8.02;100.00
49030;BME280;43337;52.070;4.508;2023-03-17T02:12:17;100757.53;;;7.96;100.00
49030;BME280;43337;52.070;4.508;2023-03-17T02:14:43;100758.88;;;8.07;100.00
49030;BME280;43337;52.070;4.508;2023-03-17T02:17:08;100759.69;;;8.10;100.00
49030;BME280;43337;52.070;4.508;2023-03-17T02:19:37;100750.13;;;8.07;100.00
49030;BME280;43337;52.070;4.508;2023-03-17T02:22:03;100757.06;;;8.10;100.00
49030;BME280;43337;52.070;4.508;2023-03-17T02:24:38;100761.34;;;8.12;100.00
49030;BME280;43337;52.070;4.508;2023-03-17T02:27:15;100760.38;;;8.15;100.00
49030;BME280;43337;52.070;4.508;2023-03-17T02:29:42;100748.34;;;8.09;100.00
49030;BME280;43337;52.070;4.508;2023-03-17T02:32:11;100757.81;;;8.13;100.00
49030;BME280;43337;52.070;4.508;2023-03-17T02:34:37;100750.88;;;8.12;100.00
49030;BME280;43337;52.070;4.508;2023-03-17T02:37:04;100757.66;;;8.18;100.00
49030;BME280;43337;52.070;4.508;2023-03-17T02:39:31;100749.94;;;8.13;100.00
49030;BME280;43337;52.070;4.508;2023-03-17T02:41:57;100751.63;;;8.16;100.00
49030;BME280;43337;52.070;4.508;2023-03-17T02:44:22;100742.06;;;8.13;100.00
49030;BME280;43337;52.070;4.508;2023-03-17T02:46:48;100744.44;;;8.21;100.00
49030;BME280;43337;52.070;4.508;2023-03-17T02:49:14;100753.16;;;8.21;100.00
49030;BME280;43337;52.070;4.508;2023-03-17T02:51:40;100763.56;;;8.24;100.00
49030;BME280;43337;52.070;4.508;2023-03-17T02:54:05;100758.25;;;8.26;100.00
49030;BME280;43337;52.070;4.508;2023-03-17T02:56:31;100748.84;;;8.20;100.00
49030;BME280;43337;52.070;4.508;2023-03-17T02:58:56;100743.66;;;8.19;100.00
49030;BME280;43337;52.070;4.508;2023-03-17T03:01:22;100748.16;;;8.15;100.00
49030;BME280;43337;52.070;4.508;2023-03-17T03:03:47;100754.84;;;8.24;100.00
49030;BME280;43337;52.070;4.508;2023-03-17T03:06:13;100754.06;;;8.20;100.00
49030;BME280;43337;52.070;4.508;2023-03-17T03:08:38;100746.22;;;8.20;100.00
49030;BME280;43337;52.070;4.508;2023-03-17T03:11:04;100748.00;;;8.18;100.00
49030;BME280;43337;52.070;4.508;2023-03-17T03:13:30;100753.13;;;8.23;100.00
49030;BME280;43337;52.070;4.508;2023-03-17T03:15:55;100745.38;;;8.18;100.00
49030;BME280;43337;52.070;4.508;2023-03-17T03:18:21;100759.25;;;8.22;100.00
49030;BME280;43337;52.070;4.508;2023-03-17T03:20:46;100757.63;;;8.19;100.00
49030;BME280;43337;52.070;4.508;2023-03-17T03:23:13;100765.09;;;8.30;100.00
49030;BME280;43337;52.070;4.508;2023-03-17T03:25:38;100767.59;;;8.35;100.00
49030;BME280;43337;52.070;4.508;2023-03-17T03:28:05;100767.78;;;8.28;100.00
49030;BME280;43337;52.070;4.508;2023-03-17T03:30:33;100767.50;;;8.38;100.00
49030;BME280;43337;52.070;4.508;2023-03-17T03:32:58;100753.63;;;8.34;100.00
49030;BME280;43337;52.070;4.508;2023-03-17T03:35:24;100760.50;;;8.37;100.00
49030;BME280;43337;52.070;4.508;2023-03-17T03:37:49;100770.22;;;8.35;100.00
49030;BME280;43337;52.070;4.508;2023-03-17T03:40:15;100775.25;;;8.41;100.00
49030;BME280;43337;52.070;4.508;2023-03-17T03:42:41;100784.13;;;8.38;100.00
49030;BME280;43337;52.070;4.508;2023-03-17T03:45:07;100775.50;;;8.33;100.00
49030;BME280;43337;52.070;4.508;2023-03-17T03:47:32;100778.06;;;8.35;100.00
49030;BME280;43337;52.070;4.508;2023-03-17T03:49:58;100778.19;;;8.31;100.00
49030;BME280;43337;52.070;4.508;2023-03-17T03:52:23;100793.72;;;8.38;100.00
49030;BME280;43337;52.070;4.508;2023-03-17T03:54:49;100787.63;;;8.37;100.00
49030;BME280;43337;52.070;4.508;2023-03-17T03:57:14;100798.94;;;8.39;100.00
49030;BME280;43337;52.070;4.508;2023-03-17T03:59:39;100791.13;;;8.36;100.00
49030;BME280;43337;52.070;4.508;2023-03-17T04:02:05;100786.03;;;8.31;100.00
49030;BME280;43337;52.070;4.508;2023-03-17T04:04:32;100788.44;;;8.39;100.00
49030;BME280;43337;52.070;4.508;2023-03-17T04:07:03;100796.34;;;8.38;100.00
49030;BME280;43337;52.070;4.508;2023-03-17T04:09:29;100796.25;;;8.41;100.00
49030;BME280;43337;52.070;4.508;2023-03-17T04:11:54;100784.03;;;8.40;100.00
49030;BME280;43337;52.070;4.508;2023-03-17T04:14:19;100793.59;;;8.42;100.00
49030;BME280;43337;52.070;4.508;2023-03-17T04:16:45;100769.16;;;8.40;100.00
49030;BME280;43337;52.070;4.508;2023-03-17T04:19:10;100763.97;;;8.39;100.00
49030;BME280;43337;52.070;4.508;2023-03-17T04:21:36;100767.28;;;8.44;100.00
49030;BME280;43337;52.070;4.508;2023-03-17T04:24:03;100777.78;;;8.44;100.00
49030;BME280;43337;52.070;4.508;2023-03-17T04:26:32;100794.22;;;8.49;100.00
49030;BME280;43337;52.070;4.508;2023-03-17T04:28:57;100795.09;;;8.49;100.00
49030;BME280;43337;52.070;4.508;2023-03-17T04:31:23;100788.13;;;8.48;100.00
49030;BME280;43337;52.070;4.508;2023-03-17T04:33:48;100775.06;;;8.47;100.00
49030;BME280;43337;52.070;4.508;2023-03-17T04:36:19;100781.84;;;8.52;100.00
49030;BME280;43337;52.070;4.508;2023-03-17T04:38:45;100783.59;;;8.53;100.00
49030;BME280;43337;52.070;4.508;2023-03-17T04:41:10;100785.28;;;8.54;100.00
49030;BME280;43337;52.070;4.508;2023-03-17T04:43:36;100783.59;;;8.53;100.00
49030;BME280;43337;52.070;4.508;2023-03-17T04:46:01;100785.03;;;8.62;100.00
49030;BME280;43337;52.070;4.508;2023-03-17T04:48:27;100789.25;;;8.66;100.00
49030;BME280;43337;52.070;4.508;2023-03-17T04:50:55;100780.34;;;8.70;100.00
49030;BME280;43337;52.070;4.508;2023-03-17T04:53:20;100767.44;;;8.64;100.00
49030;BME280;43337;52.070;4.508;2023-03-17T04:55:46;100784.69;;;8.71;100.00
49030;BME280;43337;52.070;4.508;2023-03-17T04:58:11;100787.31;;;8.71;100.00
49030;BME280;43337;52.070;4.508;2023-03-17T05:00:37;100763.00;;;8.66;100.00
49030;BME280;43337;52.070;4.508;2023-03-17T05:03:03;100765.53;;;8.69;100.00
49030;BME280;43337;52.070;4.508;2023-03-17T05:05:30;100757.41;;;8.75;100.00
49030;BME280;43337;52.070;4.508;2023-03-17T05:07:55;100753.09;;;8.74;100.00
49030;BME280;43337;52.070;4.508;2023-03-17T05:10:21;100746.81;;;8.78;100.00
49030;BME280;43337;52.070;4.508;2023-03-17T05:12:46;100755.53;;;8.79;100.00
49030;BME280;43337;52.070;4.508;2023-03-17T05:15:11;100737.53;;;8.68;100.00
49030;BME280;43337;52.070;4.508;2023-03-17T05:17:37;100767.75;;;8.80;100.00
49030;BME280;43337;52.070;4.508;2023-03-17T05:20:02;100734.72;;;8.74;100.00
49030;BME280;43337;52.070;4.508;2023-03-17T05:22:28;100721.41;;;8.79;100.00
49030;BME280;43337;52.070;4.508;2023-03-17T05:24:53;100717.06;;;8.78;100.00
49030;BME280;43337;52.070;4.508;2023-03-17T05:27:19;100719.91;;;8.72;100.00
49030;BME280;43337;52.070;4.508;2023-03-17T05:29:45;100742.75;;;8.70;100.00
49030;BME280;43337;52.070;4.508;2023-03-17T05:32:11;100729.00;;;8.63;100.00
49030;BME280;43337;52.070;4.508;2023-03-17T05:34:38;100755.41;;;8.59;100.00
49030;BME280;43337;52.070;4.508;2023-03-17T05:37:04;100774.03;;;8.51;100.00
49030;BME280;43337;52.070;4.508;2023-03-17T05:39:30;100766.59;;;8.39;100.00
49030;BME280;43337;52.070;4.508;2023-03-17T05:41:56;100780.41;;;8.44;100.00
49030;BME280;43337;52.070;4.508;2023-03-17T05:44:21;100772.63;;;8.41;100.00
49030;BME280;43337;52.070;4.508;2023-03-17T05:46:47;100744.44;;;8.21;100.00
49030;BME280;43337;52.070;4.508;2023-03-17T05:49:13;100738.44;;;8.17;100.00
49030;BME280;43337;52.070;4.508;2023-03-17T05:51:40;100761.03;;;8.21;100.00
49030;BME280;43337;52.070;4.508;2023-03-17T05:54:06;100775.66;;;8.28;100.00
49030;BME280;43337;52.070;4.508;2023-03-17T05:56:33;100748.66;;;8.25;100.00
49030;BME280;43337;52.070;4.508;2023-03-17T05:59:01;100753.97;;;8.23;100.00
49030;BME280;43337;52.070;4.508;2023-03-17T06:01:29;100732.44;;;8.14;100.00
49030;BME280;43337;52.070;4.508;2023-03-17T06:03:55;100748.84;;;8.20;100.00
49030;BME280;43337;52.070;4.508;2023-03-17T06:06:21;100743.66;;;8.19;100.00
49030;BME280;43337;52.070;4.508;2023-03-17T06:08:47;100742.00;;;8.15;100.00
49030;BME280;43337;52.070;4.508;2023-03-17T06:11:12;100738.81;;;8.06;100.00
49030;BME280;43337;52.070;4.508;2023-03-17T06:13:38;100744.91;;;8.07;100.00
49030;BME280;43337;52.070;4.508;2023-03-17T06:16:03;100734.78;;;7.96;100.00
49030;BME280;43337;52.070;4.508;2023-03-17T06:18:29;100753.00;;;7.99;100.00
49030;BME280;43337;52.070;4.508;2023-03-17T06:20:54;100760.88;;;7.99;100.00
49030;BME280;43337;52.070;4.508;2023-03-17T06:23:20;100762.13;;;7.88;100.00
49030;BME280;43337;52.070;4.508;2023-03-17T06:25:47;100756.19;;;7.82;100.00
49030;BME280;43337;52.070;4.508;2023-03-17T06:28:13;100763.91;;;7.87;100.00
49030;BME280;43337;52.070;4.508;2023-03-17T06:30:38;100770.63;;;7.96;100.00
49030;BME280;43337;52.070;4.508;2023-03-17T06:33:03;100766.28;;;7.95;100.00
49030;BME280;43337;52.070;4.508;2023-03-17T06:35:30;100771.38;;;7.99;100.00
49030;BME280;43337;52.070;4.508;2023-03-17T06:37:56;100779.13;;;8.02;100.00
49030;BME280;43337;52.070;4.508;2023-03-17T06:40:22;100763.56;;;7.98;100.00
49030;BME280;43337;52.070;4.508;2023-03-17T06:42:47;100768.47;;;8.08;100.00
49030;BME280;43337;52.070;4.508;2023-03-17T06:45:14;100770.22;;;8.08;100.00
49030;BME280;43337;52.070;4.508;2023-03-17T06:47:39;100735.56;;;8.00;100.00
49030;BME280;43337;52.070;4.508;2023-03-17T06:50:06;100741.31;;;8.10;100.00
49030;BME280;43337;52.070;4.508;2023-03-17T06:52:34;100766.00;;;8.29;100.00
49030;BME280;43337;52.070;4.508;2023-03-17T06:55:00;100759.22;;;8.23;100.00
49030;BME280;43337;52.070;4.508;2023-03-17T06:57:26;100786.72;;;8.37;100.00
49030;BME280;43337;52.070;4.508;2023-03-17T06:59:51;100786.66;;;8.40;100.00
49030;BME280;43337;52.070;4.508;2023-03-17T07:02:16;100782.34;;;8.39;100.00
49030;BME280;43337;52.070;4.508;2023-03-17T07:04:42;100778.88;;;8.38;100.00
49030;BME280;43337;52.070;4.508;2023-03-17T07:07:07;100789.94;;;8.46;100.00
49030;BME280;43337;52.070;4.508;2023-03-17T07:09:33;100782.00;;;8.48;100.00
49030;BME280;43337;52.070;4.508;2023-03-17T07:12:00;100774.91;;;8.51;100.00
49030;BME280;43337;52.070;4.508;2023-03-17T07:14:33;100786.31;;;8.50;100.00
49030;BME280;43337;52.070;4.508;2023-03-17T07:17:00;100787.94;;;8.53;100.00
49030;BME280;43337;52.070;4.508;2023-03-17T07:19:26;100776.56;;;8.54;100.00
49030;BME280;43337;52.070;4.508;2023-03-17T07:21:53;100761.84;;;8.50;100.00
49030;BME280;43337;52.070;4.508;2023-03-17T07:24:20;100767.66;;;8.58;100.00
49030;BME280;43337;52.070;4.508;2023-03-17T07:26:46;100763.97;;;8.64;100.00
49030;BME280;43337;52.070;4.508;2023-03-17T07:29:12;100763.03;;;8.65;100.00
49030;BME280;43337;52.070;4.508;2023-03-17T07:31:38;100768.00;;;8.72;100.00
49030;BME280;43337;52.070;4.508;2023-03-17T07:34:03;100767.88;;;8.77;100.00
49030;BME280;43337;52.070;4.508;2023-03-17T07:36:31;100773.69;;;8.85;100.00
49030;BME280;43337;52.070;4.508;2023-03-17T07:38:56;100774.38;;;8.90;100.00
49030;BME280;43337;52.070;4.508;2023-03-17T07:41:21;100789.00;;;8.97;100.00
49030;BME280;43337;52.070;4.508;2023-03-17T07:43:47;100807.22;;;9.02;100.00
49030;BME280;43337;52.070;4.508;2023-03-17T07:46:12;100800.16;;;9.04;100.00
49030;BME280;43337;52.070;4.508;2023-03-17T07:48:39;100787.47;;;9.15;100.00
49030;BME280;43337;52.070;4.508;2023-03-17T07:51:11;100786.47;;;9.18;100.00
49030;BME280;43337;52.070;4.508;2023-03-17T07:53:37;100784.72;;;9.18;100.00
49030;BME280;43337;52.070;4.508;2023-03-17T07:56:03;100795.81;;;9.26;100.00
49030;BME280;43337;52.070;4.508;2023-03-17T07:58:28;100795.75;;;9.28;100.00
49030;BME280;43337;52.070;4.508;2023-03-17T08:00:55;100788.63;;;9.30;100.00
49030;BME280;43337;52.070;4.508;2023-03-17T08:03:22;100776.38;;;9.31;100.00
49030;BME280;43337;52.070;4.508;2023-03-17T08:05:51;100783.69;;;9.46;100.00
49030;BME280;43337;52.070;4.508;2023-03-17T08:08:24;100742.72;;;9.40;100.00
49030;BME280;43337;52.070;4.508;2023-03-17T08:10:50;100761.91;;;9.64;100.00
49030;BME280;43337;52.070;4.508;2023-03-17T08:13:16;100770.38;;;9.72;100.00
49030;BME280;43337;52.070;4.508;2023-03-17T08:15:42;100777.03;;;9.81;100.00
49030;BME280;43337;52.070;4.508;2023-03-17T08:18:07;100761.19;;;9.83;100.00
49030;BME280;43337;52.070;4.508;2023-03-17T08:20:33;100784.19;;;9.99;100.00
49030;BME280;43337;52.070;4.508;2023-03-17T08:22:59;100769.78;;;10.08;100.00
49030;BME280;43337;52.070;4.508;2023-03-17T08:25:25;100770.25;;;10.18;100.00
49030;BME280;43337;52.070;4.508;2023-03-17T08:27:52;100759.06;;;10.13;100.00
49030;BME280;43337;52.070;4.508;2023-03-17T08:30:18;100775.03;;;10.30;100.00
49030;BME280;43337;52.070;4.508;2023-03-17T08:32:45;100784.91;;;10.45;100.00
49030;BME280;43337;52.070;4.508;2023-03-17T08:35:13;100782.84;;;10.52;100.00
49030;BME280;43337;52.070;4.508;2023-03-17T08:37:41;100783.66;;;10.54;100.00
49030;BME280;43337;52.070;4.508;2023-03-17T08:40:07;100779.75;;;10.63;100.00
49030;BME280;43337;52.070;4.508;2023-03-17T08:42:34;100765.09;;;10.57;100.00
49030;BME280;43337;52.070;4.508;2023-03-17T08:45:02;100791.28;;;10.81;100.00
49030;BME280;43337;52.070;4.508;2023-03-17T08:47:28;100772.84;;;10.81;100.00
49030;BME280;43337;52.070;4.508;2023-03-17T08:49:54;100773.28;;;10.90;100.00
49030;BME280;43337;52.070;4.508;2023-03-17T08:52:20;100792.72;;;11.07;100.00
49030;BME280;43337;52.070;4.508;2023-03-17T08:54:46;100785.28;;;11.16;100.00
49030;BME280;43337;52.070;4.508;2023-03-17T08:57:13;100780.28;;;11.29;100.00
49030;BME280;43337;52.070;4.508;2023-03-17T08:59:39;100786.63;;;11.44;100.00
49030;BME280;43337;52.070;4.508;2023-03-17T09:02:05;100777.50;;;11.51;100.00
49030;BME280;43337;52.070;4.508;2023-03-17T09:04:31;100783.84;;;11.66;100.00
49030;BME280;43337;52.070;4.508;2023-03-17T09:06:58;100786.09;;;11.73;100.00
49030;BME280;43337;52.070;4.508;2023-03-17T09:09:23;100799.53;;;11.88;100.00
49030;BME280;43337;52.070;4.508;2023-03-17T09:11:49;100798.44;;;11.92;100.00
49030;BME280;43337;52.070;4.508;2023-03-17T09:14:14;100812.34;;;11.95;100.00
49030;BME280;43337;52.070;4.508;2023-03-17T09:16:40;100810.09;;;12.05;99.89
49030;BME280;43337;52.070;4.508;2023-03-17T09:19:06;100794.50;;;12.01;99.37
49030;BME280;43337;52.070;4.508;2023-03-17T09:21:32;100798.41;;;12.11;99.80
49030;BME280;43337;52.070;4.508;2023-03-17T09:23:57;100827.13;;;12.34;100.00
49030;BME280;43337;52.070;4.508;2023-03-17T09:26:23;100818.66;;;12.45;98.69
49030;BME280;43337;52.070;4.508;2023-03-17T09:28:50;100825.03;;;12.58;98.78
49030;BME280;43337;52.070;4.508;2023-03-17T09:31:17;100822.84;;;12.66;98.45
49030;BME280;43337;52.070;4.508;2023-03-17T09:33:43;100822.22;;;12.79;98.03
49030;BME280;43337;52.070;4.508;2023-03-17T09:36:09;100821.75;;;12.88;98.30
49030;BME280;43337;52.070;4.508;2023-03-17T09:38:35;100820.31;;;12.98;98.28
49030;BME280;43337;52.070;4.508;2023-03-17T09:48:55;100831.13;;;13.11;95.81
49030;BME280;43337;52.070;4.508;2023-03-17T09:51:24;100840.75;;;13.12;96.25
49030;BME280;43337;52.070;4.508;2023-03-17T09:56:47;100850.53;;;13.10;95.77
49030;BME280;43337;52.070;4.508;2023-03-17T09:59:29;100857.78;;;13.06;92.73
49030;BME280;43337;52.070;4.508;2023-03-17T10:01:56;100844.34;;;12.93;96.36
49030;BME280;43337;52.070;4.508;2023-03-17T10:04:21;100862.38;;;13.03;96.66
49030;BME280;43337;52.070;4.508;2023-03-17T10:06:48;100870.59;;;13.14;96.64
49030;BME280;43337;52.070;4.508;2023-03-17T10:09:26;100884.66;;;13.32;96.71
49030;BME280;43337;52.070;4.508;2023-03-17T10:12:07;100875.22;;;13.43;93.75
49030;BME280;43337;52.070;4.508;2023-03-17T10:14:54;100869.25;;;13.56;96.22
49030;BME280;43337;52.070;4.508;2023-03-17T10:17:25;100863.22;;;13.70;96.40
49030;BME280;43337;52.070;4.508;2023-03-17T10:19:59;100863.41;;;13.82;95.11
49030;BME280;43337;52.070;4.508;2023-03-17T10:22:38;100866.03;;;13.82;94.81
49030;BME280;43337;52.070;4.508;2023-03-17T10:25:11;100864.06;;;13.86;95.01
49030;BME280;43337;52.070;4.508;2023-03-17T10:27:40;100862.28;;;13.86;94.65
49030;BME280;43337;52.070;4.508;2023-03-17T10:30:17;100860.50;;;13.87;95.10
49030;BME280;43337;52.070;4.508;2023-03-17T10:32:43;100875.88;;;13.96;95.27
49030;BME280;43337;52.070;4.508;2023-03-17T10:35:11;100854.53;;;13.99;94.73
49030;BME280;43337;52.070;4.508;2023-03-17T10:37:36;100851.63;;;14.04;95.04
49030;BME280;43337;52.070;4.508;2023-03-17T10:40:07;100853.56;;;14.16;95.00
49030;BME280;43337;52.070;4.508;2023-03-17T10:42:51;100839.38;;;14.17;95.15
49030;BME280;43337;52.070;4.508;2023-03-17T10:45:31;100832.03;;;14.22;93.77
49030;BME280;43337;52.070;4.508;2023-03-17T10:47:58;100853.44;;;14.33;94.67
49030;BME280;43337;52.070;4.508;2023-03-17T10:50:36;100845.94;;;14.26;93.67
49030;BME280;43337;52.070;4.508;2023-03-17T10:58:06;100847.47;;;14.30;94.23
49030;BME280;43337;52.070;4.508;2023-03-17T11:00:38;100844.63;;;14.33;95.01
49030;BME280;43337;52.070;4.508;2023-03-17T11:03:11;100841.75;;;14.37;95.26
49030;BME280;43337;52.070;4.508;2023-03-17T11:05:39;100812.56;;;14.23;94.65
49030;BME280;43337;52.070;4.508;2023-03-17T11:08:14;100832.84;;;14.38;93.55
49030;BME280;43337;52.070;4.508;2023-03-17T11:10:41;100830.38;;;14.35;94.45
49030;BME280;43337;52.070;4.508;2023-03-17T11:13:06;100833.97;;;14.34;93.98
49030;BME280;43337;52.070;4.508;2023-03-17T11:15:52;100824.00;;;14.24;94.04
49030;BME280;43337;52.070;4.508;2023-03-17T11:18:26;100798.28;;;14.10;94.16
49030;BME280;43337;52.070;4.508;2023-03-17T11:20:56;100817.91;;;14.22;94.68
49030;BME280;43337;52.070;4.508;2023-03-17T11:23:46;100815.47;;;14.19;94.20
49030;BME280;43337;52.070;4.508;2023-03-17T11:31:59;100811.09;;;14.17;96.20
49030;BME280;43337;52.070;4.508;2023-03-17T11:34:55;100799.06;;;14.12;96.70
49030;BME280;43337;52.070;4.508;2023-03-17T11:37:45;100799.38;;;14.22;97.07
49030;BME280;43337;52.070;4.508;2023-03-17T11:40:20;100775.88;;;14.31;98.05
49030;BME280;43337;52.070;4.508;2023-03-17T11:56:19;100746.44;;;14.95;99.61
49030;BME280;43337;52.070;4.508;2023-03-17T11:58:58;100756.50;;;15.04;94.38
49030;BME280;43337;52.070;4.508;2023-03-17T12:01:31;100754.50;;;15.07;96.62
49030;BME280;43337;52.070;4.508;2023-03-17T12:04:19;100780.63;;;15.13;97.49
49030;BME280;43337;52.070;4.508;2023-03-17T12:07:02;100764.53;;;15.17;97.68
49030;BME280;43337;52.070;4.508;2023-03-17T12:09:39;100763.75;;;15.29;97.40
49030;BME280;43337;52.070;4.508;2023-03-17T12:12:08;100784.56;;;15.49;97.82
49030;BME280;43337;52.070;4.508;2023-03-17T12:14:40;100787.16;;;15.63;94.69
49030;BME280;43337;52.070;4.508;2023-03-17T12:17:20;100798.16;;;15.72;92.92
49030;BME280;43337;52.070;4.508;2023-03-17T12:20:02;100801.59;;;15.74;93.64
49030;BME280;43337;52.070;4.508;2023-03-17T12:22:38;100799.78;;;15.74;93.55
49030;BME280;43337;52.070;4.508;2023-03-17T12:25:14;100799.06;;;15.72;93.39
49030;BME280;43337;52.070;4.508;2023-03-17T12:27:51;100798.41;;;15.69;93.95
49030;BME280;43337;52.070;4.508;2023-03-17T12:32:58;100785.66;;;15.74;92.30
49030;BME280;43337;52.070;4.508;2023-03-17T12:35:31;100812.91;;;15.90;92.50
49030;BME280;43337;52.070;4.508;2023-03-17T12:38:00;100826.31;;;15.89;92.31
49030;BME280;43337;52.070;4.508;2023-03-17T12:40:34;100824.81;;;15.84;91.77
49030;BME280;43337;52.070;4.508;2023-03-17T12:46:28;100796.66;;;15.68;90.23
49030;BME280;43337;52.070;4.508;2023-03-17T12:54:27;100806.72;;;15.62;92.06
49030;BME280;43337;52.070;4.508;2023-03-17T12:57:00;100813.56;;;15.67;92.09
49030;BME280;43337;52.070;4.508;2023-03-17T12:59:26;100800.44;;;15.63;91.96
49030;BME280;43337;52.070;4.508;2023-03-17T13:01:55;100798.41;;;15.69;91.66
49030;BME280;43337;52.070;4.508;2023-03-17T13:04:28;100790.50;;;15.67;91.63
49030;BME280;43337;52.070;4.508;2023-03-17T13:07:10;100805.69;;;15.65;91.38
49030;BME280;43337;52.070;4.508;2023-03-17T13:12:55;100796.78;;;15.66;91.29
49030;BME280;43337;52.070;4.508;2023-03-17T13:23:34;100794.38;;;15.76;90.69
49030;BME280;43337;52.070;4.508;2023-03-17T13:26:01;100798.97;;;15.86;92.23
49030;BME280;43337;52.070;4.508;2023-03-17T13:34:12;100780.47;;;15.99;92.28
49030;BME280;43337;52.070;4.508;2023-03-17T13:39:21;100785.56;;;16.02;91.19
49030;BME280;43337;52.070;4.508;2023-03-17T13:41:58;100773.66;;;15.95;91.01
49030;BME280;43337;52.070;4.508;2023-03-17T13:46:54;100768.97;;;15.99;91.40
49030;BME280;43337;52.070;4.508;2023-03-17T13:52:07;100767.47;;;15.95;90.93
49030;BME280;43337;52.070;4.508;2023-03-17T13:54:45;100775.34;;;15.96;91.19
49030;BME280;43337;52.070;4.508;2023-03-17T13:57:34;100763.88;;;15.96;91.42
49030;BME280;43337;52.070;4.508;2023-03-17T14:00:03;100753.91;;;15.99;92.04
49030;BME280;43337;52.070;4.508;2023-03-17T14:02:39;100745.63;;;16.04;92.20
49030;BME280;43337;52.070;4.508;2023-03-17T14:05:07;100746.81;;;16.13;92.32
49030;BME280;43337;52.070;4.508;2023-03-17T14:07:45;100746.50;;;16.17;91.25
49030;BME280;43337;52.070;4.508;2023-03-17T14:10:22;100745.44;;;16.20;90.86